.
WxDataArchive / Data Records for 2012-09-18
2012-09-17 September 2012 2012-09-19

Data Records for Tuesday, 18 September 2012

Time	Temp	Chill	HIndex	Humid	Dewpt	 Wind 	HiWind	WindDir	Rain 	Barom 
-----	----	-----	------	-----	-----	------	------	-------	-----	----- 
00:00	66.0	66.0	66.0	92	63.6	0	1	248	0.00	29.712 
00:05	66.0	66.0	66.0	92	63.6	0	3	225	0.00	29.712 
00:10	65.8	65.8	65.8	92	63.4	0	1	225	0.00	29.712 
00:15	65.8	65.8	65.8	92	63.4	0	0	---	0.00	29.703 
00:20	65.8	65.8	65.8	92	63.4	0	1	225	0.00	29.703 
00:25	65.8	65.8	65.8	92	63.4	0	1	225	0.00	29.703 
00:30	65.6	65.6	65.6	92	63.2	0	1	225	0.00	29.700 
00:35	65.6	65.6	65.6	92	63.2	0	1	225	0.00	29.700 
00:40	65.6	65.6	65.6	92	63.2	0	1	225	0.00	29.700 
00:45	65.6	65.6	65.6	91	62.9	0	1	225	0.00	29.693 
00:50	65.5	65.5	65.5	91	62.8	0	1	225	0.00	29.693 
00:55	65.5	65.5	65.5	91	62.8	0	1	225	0.00	29.693 
01:00	65.5	65.5	65.5	90	62.5	0	1	112	0.00	29.686 
01:05	65.3	65.3	65.3	90	62.3	0	1	112	0.00	29.686 
01:10	65.3	65.3	65.3	89	62.0	0	2	112	0.00	29.686 
01:15	65.3	65.3	65.3	89	62.0	0	1	270	0.00	29.677 
01:20	65.3	65.3	65.3	88	61.6	0	1	270	0.00	29.677 
01:25	65.3	65.3	65.3	88	61.6	0	1	270	0.00	29.677 
01:30	65.3	65.3	65.3	88	61.6	0	1	270	0.00	29.679 
01:35	65.3	65.3	65.3	88	61.6	0	1	270	0.00	29.679 
01:40	65.3	65.3	65.3	88	61.6	0	1	270	0.00	29.679 
01:45	65.2	65.2	65.2	88	61.6	0	1	270	0.00	29.675 
01:50	65.2	65.2	65.2	88	61.6	0	1	270	0.00	29.675 
01:55	65.2	65.2	65.2	88	61.6	0	1	270	0.00	29.675 
02:00	65.2	65.2	65.2	88	61.6	0	1	270	0.00	29.669 
02:05	65.2	65.2	65.2	88	61.6	0	1	270	0.00	29.669 
02:10	65.0	65.0	65.0	88	61.4	0	1	270	0.00	29.669 
02:15	65.0	65.0	65.0	88	61.4	0	1	270	0.00	29.662 
02:20	65.0	65.0	65.0	89	61.7	0	1	270	0.00	29.662 
02:25	65.0	65.0	65.0	89	61.7	0	1	270	0.00	29.662 
02:30	65.0	65.0	65.0	89	61.7	0	2	270	0.00	29.652 
02:35	64.8	64.8	64.8	89	61.5	0	1	248	0.00	29.652 
02:40	64.8	64.8	64.8	89	61.5	0	1	248	0.00	29.652 
02:45	64.8	64.8	64.8	90	61.8	0	1	338	0.00	29.645 
02:50	64.7	64.7	64.7	90	61.7	0	1	225	0.00	29.645 
02:55	64.7	64.7	64.7	90	61.7	0	2	225	0.00	29.645 
03:00	64.8	64.8	64.8	90	61.8	0	2	225	0.00	29.640 
03:05	64.7	64.7	64.7	90	61.7	0	0	---	0.00	29.640 
03:10	64.7	64.7	64.7	90	61.7	0	1	225	0.00	29.640 
03:15	64.7	64.7	64.7	91	62.0	0	1	225	0.00	29.635 
03:20	64.8	64.8	64.8	91	62.1	0	1	225	0.00	29.635 
03:25	64.8	64.8	64.8	91	62.1	0	3	225	0.00	29.635 
03:30	64.7	64.7	64.7	91	62.0	1	3	225	0.00	29.632 
03:35	64.7	64.7	64.7	91	62.0	0	2	225	0.00	29.632 
03:40	64.7	64.7	64.7	91	62.0	0	1	225	0.00	29.632 
03:45	64.7	64.7	64.7	91	62.0	0	1	225	0.00	29.632 
03:50	64.5	64.5	64.5	91	61.8	0	1	225	0.00	29.632 
03:55	64.5	64.5	64.5	91	61.8	0	1	225	0.00	29.632 
04:00	64.3	64.3	64.3	90	61.3	0	2	225	0.00	29.625 
04:05	64.2	64.2	64.2	90	61.2	0	3	225	0.00	29.625 
04:10	64.0	64.0	64.0	89	60.7	0	2	270	0.00	29.625 
04:15	64.0	64.0	64.0	89	60.7	1	3	270	0.00	29.624 
04:20	63.9	63.9	63.9	88	60.3	1	4	270	0.00	29.624 
04:25	63.7	63.7	63.7	88	60.1	1	5	270	0.00	29.624 
04:30	63.5	63.5	63.5	87	59.6	0	3	0	0.00	29.624 
04:35	63.2	63.2	63.2	86	58.9	1	4	338	0.00	29.624 
04:40	62.9	62.9	62.9	87	59.0	0	1	292	0.01	29.624 
04:45	62.4	62.4	62.4	87	58.5	0	4	292	0.00	29.624 
04:50	62.3	62.3	62.3	88	58.7	0	3	292	0.00	29.624 
04:55	62.1	62.1	62.1	88	58.5	1	4	292	0.00	29.624 
05:00	62.0	62.0	62.0	88	58.4	0	4	292	0.00	29.625 
05:05	62.0	62.0	62.0	89	58.7	0	1	292	0.00	29.625 
05:10	61.8	61.8	61.8	89	58.5	0	3	292	0.00	29.625 
05:15	61.6	61.6	61.6	89	58.3	0	2	292	0.00	29.625 
05:20	61.6	61.6	61.6	89	58.3	1	4	292	0.00	29.625 
05:25	61.3	61.3	61.3	89	58.0	2	6	292	0.00	29.625 
05:30	60.9	60.9	60.9	88	57.3	2	9	292	0.00	29.625 
05:35	60.2	60.2	60.2	88	56.6	2	9	270	0.00	29.625 
05:40	59.8	59.8	59.8	87	55.9	2	6	338	0.00	29.625 
05:45	59.5	59.5	59.5	86	55.3	2	6	292	0.00	29.631 
05:50	59.3	59.3	59.3	85	54.8	1	7	292	0.00	29.631 
05:55	59.3	59.3	59.3	86	55.1	0	1	292	0.00	29.631 
06:00	59.3	59.3	59.3	86	55.1	1	4	292	0.00	29.632 
06:05	59.2	59.2	59.2	86	55.0	0	2	292	0.00	29.632 
06:10	59.0	59.0	59.0	86	54.8	1	6	292	0.00	29.632 
06:15	58.9	58.9	58.9	87	55.0	1	6	338	0.00	29.636 
06:20	58.7	58.7	58.7	87	54.8	1	4	292	0.00	29.636 
06:25	58.7	58.7	58.7	87	54.8	1	5	292	0.00	29.636 
06:30	58.6	58.6	58.6	87	54.7	1	4	315	0.00	29.636 
06:35	58.6	58.6	58.6	88	55.1	1	3	292	0.00	29.636 
06:40	58.4	58.4	58.4	88	54.9	1	4	292	0.00	29.636 
06:45	58.4	58.4	58.4	88	54.9	1	4	270	0.00	29.641 
06:50	58.4	58.4	58.4	88	54.9	0	2	270	0.00	29.641 
06:55	58.4	58.4	58.4	88	54.9	0	3	270	0.00	29.641 
07:00	58.4	58.4	58.4	88	54.9	1	4	270	0.00	29.649 
07:05	58.4	58.4	58.4	88	54.9	1	3	270	0.00	29.649 
07:10	58.4	58.4	58.4	88	54.9	0	3	315	0.00	29.649 
07:15	58.4	58.4	58.4	88	54.9	1	4	292	0.00	29.651 
07:20	58.3	58.3	58.3	88	54.8	0	2	292	0.00	29.651 
07:25	58.3	58.3	58.3	88	54.8	0	2	292	0.00	29.651 
07:30	58.3	58.3	58.3	88	54.8	1	5	292	0.00	29.659 
07:35	58.3	58.3	58.3	89	55.1	1	3	292	0.00	29.659 
07:40	58.1	58.1	58.1	89	54.9	1	6	292	0.00	29.659 
07:45	58.0	58.0	58.0	90	55.1	1	5	270	0.01	29.663 
07:50	57.8	57.8	57.8	90	54.9	0	3	292	0.00	29.663 
07:55	57.8	57.8	57.8	91	55.2	1	3	292	0.00	29.663 
08:00	57.6	57.6	57.6	91	55.0	1	3	292	0.00	29.663 
08:05	57.5	57.5	57.5	91	54.9	0	3	292	0.00	29.663 
08:10	57.5	57.5	57.5	91	54.9	1	4	292	0.00	29.663 
08:15	57.2	57.2	57.2	91	54.6	1	5	292	0.00	29.669 
08:20	57.2	57.2	57.2	90	54.3	1	5	292	0.00	29.669 
08:25	57.2	57.2	57.2	90	54.3	0	2	292	0.00	29.669 
08:30	57.0	57.0	57.0	90	54.1	0	1	292	0.00	29.679 
08:35	57.2	57.2	57.2	90	54.3	0	2	292	0.00	29.679 
08:40	57.0	57.0	57.0	90	54.1	0	2	292	0.00	29.679 
08:45	57.0	57.0	57.0	89	53.8	0	1	292	0.00	29.683 
08:50	56.9	56.9	56.9	90	54.0	0	1	292	0.00	29.683 
08:55	57.0	57.0	57.0	90	54.1	0	1	292	0.00	29.683 
09:00	57.0	57.0	57.0	90	54.1	0	1	292	0.00	29.687 
09:05	57.2	57.2	57.2	90	54.3	0	1	292	0.00	29.687 
09:10	57.3	57.3	57.3	90	54.4	0	2	292	0.00	29.687 
09:15	57.3	57.3	57.3	90	54.4	0	2	292	0.00	29.691 
09:20	57.5	57.5	57.5	89	54.3	0	1	292	0.00	29.691 
09:25	57.6	57.6	57.6	89	54.4	0	1	292	0.00	29.691 
09:30	57.6	57.6	57.6	89	54.4	0	2	292	0.00	29.692 
09:35	57.8	57.8	57.8	88	54.3	0	2	292	0.00	29.692 
09:40	58.0	58.0	58.0	88	54.5	1	4	292	0.00	29.692 
09:45	58.1	58.1	58.1	86	53.9	1	3	292	0.00	29.703 
09:50	58.3	58.3	58.3	85	53.8	0	2	292	0.00	29.703 
09:55	58.4	58.4	58.4	85	53.9	0	2	292	0.00	29.703 
10:00	58.6	58.6	58.6	84	53.8	1	4	292	0.00	29.710 
10:05	58.7	58.7	58.7	84	53.9	0	3	315	0.00	29.710 
10:10	58.9	58.9	58.9	84	54.1	0	2	315	0.00	29.710 
10:15	58.9	58.9	58.9	83	53.7	0	1	315	0.00	29.715 
10:20	58.9	58.9	58.9	83	53.7	1	3	315	0.00	29.715 
10:25	58.9	58.9	58.9	81	53.1	1	5	292	0.00	29.715 
10:30	59.2	59.2	59.2	81	53.4	1	4	292	0.00	29.712 
10:35	59.6	59.6	59.6	80	53.4	1	4	292	0.00	29.712 
10:40	60.4	60.4	60.4	78	53.5	1	5	292	0.00	29.712 
10:45	61.0	61.0	61.0	74	52.6	1	6	0	0.00	29.713 
10:50	61.0	61.0	61.0	71	51.5	2	6	338	0.00	29.713 
10:55	61.3	61.3	61.3	70	51.4	1	4	292	0.00	29.713 
11:00	61.3	61.3	61.3	69	51.0	1	5	270	0.00	29.716 
11:05	61.3	61.3	61.3	68	50.6	2	4	292	0.00	29.716 
11:10	61.3	61.3	61.3	67	50.2	1	5	292	0.00	29.716 
11:15	61.5	61.5	61.5	65	49.6	2	6	292	0.00	29.720 
11:20	61.8	61.8	61.8	64	49.5	2	6	292	0.00	29.720 
11:25	62.0	62.0	62.0	64	49.7	1	4	315	0.00	29.720 
11:30	62.0	62.0	62.0	64	49.7	1	3	315	0.00	29.726 
11:35	61.5	61.5	61.5	60	47.5	2	4	292	0.00	29.726 
11:40	62.0	62.0	62.0	62	48.8	1	4	315	0.00	29.726 
11:45	62.0	62.0	62.0	60	48.0	2	7	315	0.00	29.728 
11:50	61.6	61.6	61.6	62	48.4	1	4	315	0.00	29.728 
11:55	62.0	62.0	62.0	61	48.4	1	4	292	0.00	29.728 
12:00	62.6	62.6	62.6	60	48.5	1	4	315	0.00	29.733 
12:05	62.1	62.1	62.1	60	48.0	3	5	292	0.00	29.733 
12:10	61.5	61.5	61.5	61	47.9	2	6	292	0.00	29.733 
12:15	61.3	61.3	61.3	60	47.3	2	5	292	0.00	29.742 
12:20	61.3	61.3	61.3	60	47.3	2	5	292	0.00	29.742 
12:25	61.5	61.5	61.5	61	47.9	1	3	292	0.00	29.742 
12:30	62.1	62.1	62.1	60	48.0	2	5	292	0.00	29.743 
12:35	62.3	62.3	62.3	59	47.8	1	4	292	0.00	29.743 
12:40	61.8	61.8	61.8	58	46.9	2	7	0	0.00	29.743 
12:45	61.3	61.3	61.3	58	46.4	2	5	292	0.00	29.747 
12:50	61.3	61.3	61.3	58	46.4	2	4	292	0.00	29.747 
12:55	61.5	61.5	61.5	59	47.0	1	4	315	0.00	29.747 
13:00	61.8	61.8	61.8	59	47.3	2	5	270	0.00	29.750 
13:05	61.3	61.3	61.3	58	46.4	1	5	292	0.00	29.750 
13:10	61.6	61.6	61.6	58	46.7	2	5	292	0.00	29.750 
13:15	62.4	62.4	62.4	54	45.5	3	9	315	0.00	29.749 
13:20	63.4	63.4	63.4	55	46.9	2	4	292	0.00	29.749 
13:25	63.5	63.5	63.5	52	45.6	3	5	292	0.00	29.749 
13:30	64.2	64.2	64.2	53	46.7	1	4	292	0.00	29.748 
13:35	64.7	64.7	64.7	52	46.7	1	4	0	0.00	29.748 
13:40	64.7	64.7	64.7	51	46.1	2	5	315	0.00	29.748 
13:45	63.4	63.4	63.4	52	45.5	2	5	292	0.00	29.754 
13:50	62.3	62.3	62.3	54	45.4	2	5	292	0.00	29.754 
13:55	61.0	61.0	61.0	63	48.3	4	11	270	0.01	29.754 
14:00	57.2	57.2	57.2	73	48.6	3	8	292	0.03	29.786 
14:05	55.3	55.3	55.3	80	49.2	2	6	270	0.01	29.786 
14:10	54.7	54.7	54.7	84	50.0	1	4	292	0.00	29.786 
14:15	54.7	54.7	54.7	85	50.3	1	4	292	0.01	29.786 
14:20	54.8	54.8	54.8	86	50.7	1	5	292	0.00	29.786 
14:25	55.3	55.3	55.3	86	51.2	2	4	248	0.00	29.786 
14:30	56.2	56.2	56.2	87	52.4	1	3	315	0.00	29.786 
14:35	57.0	57.0	57.0	85	52.5	2	4	292	0.00	29.786 
14:40	58.0	58.0	58.0	83	52.9	2	5	270	0.00	29.786 
14:45	58.4	58.4	58.4	77	51.2	2	6	292	0.00	29.786 
14:50	58.7	58.7	58.7	72	49.7	3	5	292	0.00	29.786 
14:55	59.3	59.3	59.3	70	49.5	2	5	292	0.00	29.786 
15:00	59.5	59.5	59.5	65	47.7	3	7	292	0.00	29.784 
15:05	59.2	59.2	59.2	63	46.6	3	6	270	0.00	29.784 
15:10	59.5	59.5	59.5	64	47.3	2	4	315	0.00	29.784 
15:15	59.9	59.9	59.9	62	46.8	2	5	292	0.00	29.782 
15:20	60.7	60.7	60.7	62	47.6	3	6	270	0.00	29.782 
15:25	61.2	61.2	61.2	64	48.9	3	5	270	0.00	29.782 
15:30	60.9	60.9	60.9	62	47.8	2	6	270	0.00	29.792 
15:35	60.5	60.5	60.5	59	46.1	3	6	270	0.00	29.792 
15:40	59.8	59.8	59.8	62	46.8	3	5	315	0.00	29.792 
15:45	59.3	59.3	59.3	65	47.5	2	6	248	0.00	29.794 
15:50	59.3	59.3	59.3	64	47.1	3	5	292	0.00	29.794 
15:55	60.1	60.1	60.1	58	45.3	3	10	292	0.00	29.794 
16:00	60.9	60.9	60.9	52	43.2	2	6	292	0.00	29.793 
16:05	61.3	61.3	61.3	53	44.0	3	8	292	0.00	29.793 
16:10	61.8	61.8	61.8	51	43.5	3	6	315	0.00	29.793 
16:15	62.1	62.1	62.1	51	43.8	2	5	270	0.00	29.795 
16:20	62.7	62.7	62.7	50	43.8	3	6	315	0.00	29.795 
16:25	61.8	61.8	61.8	49	42.4	3	6	270	0.00	29.795 
16:30	61.2	61.2	61.2	49	41.9	3	9	315	0.00	29.813 
16:35	61.6	61.6	61.6	49	42.3	2	7	315	0.00	29.813 
16:40	62.0	62.0	62.0	47	41.5	3	6	270	0.00	29.813 
16:45	62.0	62.0	62.0	46	41.0	4	7	292	0.00	29.813 
16:50	61.8	61.8	61.8	48	41.9	3	7	292	0.00	29.813 
16:55	62.0	62.0	62.0	48	42.1	3	7	315	0.00	29.813 
17:00	62.0	62.0	62.0	50	43.1	3	9	270	0.00	29.819 
17:05	62.0	62.0	62.0	49	42.6	3	6	270	0.00	29.819 
17:10	61.8	61.8	61.8	49	42.4	3	6	315	0.00	29.819 
17:15	61.5	61.5	61.5	50	42.7	2	5	270	0.00	29.832 
17:20	60.7	60.7	60.7	51	42.5	3	9	292	0.00	29.832 
17:25	59.8	59.8	59.8	54	43.1	3	10	315	0.00	29.832 
17:30	59.5	59.5	59.5	54	42.8	2	8	315	0.00	29.845 
17:35	59.0	59.0	59.0	53	41.9	3	9	270	0.00	29.845 
17:40	59.0	59.0	59.0	55	42.9	2	5	292	0.00	29.845 
17:45	58.9	58.9	58.9	55	42.8	2	6	292	0.00	29.853 
17:50	58.7	58.7	58.7	55	42.6	2	5	292	0.00	29.853 
17:55	58.7	58.7	58.7	55	42.6	2	8	315	0.00	29.853 
18:00	58.9	58.9	58.9	53	41.8	3	12	315	0.00	29.853 
18:05	59.0	59.0	59.0	53	41.9	2	5	292	0.00	29.853 
18:10	58.6	58.6	58.6	52	41.0	1	4	270	0.00	29.853 
18:15	58.1	58.1	58.1	52	40.6	2	6	292	0.00	29.866 
18:20	58.0	58.0	58.0	52	40.5	1	5	315	0.00	29.866 
18:25	58.1	58.1	58.1	51	40.1	3	7	292	0.00	29.866 
18:30	58.4	58.4	58.4	50	39.8	1	4	315	0.00	29.868 
18:35	58.6	58.6	58.6	49	39.5	2	6	292	0.00	29.868 
18:40	58.7	58.7	58.7	47	38.5	3	6	315	0.00	29.868 
18:45	58.7	58.7	58.7	45	37.4	4	9	292	0.00	29.882 
18:50	58.7	58.7	58.7	41	35.1	3	8	292	0.00	29.882 
18:55	58.4	58.4	58.4	41	34.8	2	10	292	0.00	29.882 
19:00	58.0	58.0	58.0	43	35.6	2	5	315	0.00	29.891 
19:05	57.6	57.6	57.6	44	35.8	1	4	315	0.00	29.891 
19:10	57.5	57.5	57.5	45	36.3	2	5	270	0.00	29.891 
19:15	57.3	57.3	57.3	43	35.0	2	6	292	0.00	29.904 
19:20	57.2	57.2	57.2	41	33.7	3	9	292	0.00	29.904 
19:25	57.0	57.0	57.0	41	33.5	2	5	292	0.00	29.904 
19:30	56.7	56.7	56.7	41	33.3	2	5	270	0.00	29.916 
19:35	56.6	56.6	56.6	42	33.8	3	5	292	0.00	29.916 
19:40	56.3	56.3	56.3	43	34.1	2	5	292	0.00	29.916 
19:45	56.0	56.0	56.0	44	34.4	2	5	338	0.00	29.923 
19:50	55.7	55.7	55.7	45	34.7	1	3	292	0.00	29.923 
19:55	55.4	55.4	55.4	46	35.0	1	3	292	0.00	29.923 
20:00	55.3	55.3	55.3	47	35.4	1	4	292	0.00	29.932 
20:05	55.0	55.0	55.0	48	35.7	0	3	292	0.00	29.932 
20:10	54.7	54.7	54.7	49	35.9	0	1	292	0.00	29.932 
20:15	54.4	54.4	54.4	49	35.6	0	1	292	0.00	29.936 
20:20	54.2	54.2	54.2	49	35.5	0	2	292	0.00	29.936 
20:25	54.1	54.1	54.1	49	35.4	0	1	292	0.00	29.936 
20:30	53.9	53.9	53.9	50	35.7	0	1	292	0.00	29.949 
20:35	53.6	53.6	53.6	51	35.9	0	1	292	0.00	29.949 
20:40	53.5	53.5	53.5	51	35.8	0	1	292	0.00	29.949 
20:45	53.2	53.2	53.2	52	36.0	0	1	292	0.00	29.957 
20:50	52.9	52.9	52.9	53	36.2	0	1	292	0.00	29.957 
20:55	52.8	52.8	52.8	53	36.1	0	1	292	0.00	29.957 
21:00	52.5	52.5	52.5	54	36.3	0	0	---	0.00	29.964 
21:05	52.2	52.2	52.2	55	36.5	0	0	---	0.00	29.964 
21:10	51.9	51.9	51.9	56	36.7	0	0	---	0.00	29.964 
21:15	51.4	51.4	51.4	57	36.7	0	0	---	0.00	29.966 
21:20	51.0	51.0	51.0	59	37.2	0	0	---	0.00	29.966 
21:25	50.7	50.7	50.7	59	36.9	0	0	---	0.00	29.966 
21:30	50.5	50.5	50.5	58	36.3	0	1	292	0.00	29.976 
21:35	50.7	50.7	50.7	57	36.0	0	1	292	0.00	29.976 
21:40	50.7	50.7	50.7	57	36.0	0	1	292	0.00	29.976 
21:45	50.5	50.5	50.5	57	35.8	0	0	---	0.00	29.982 
21:50	50.4	50.4	50.4	57	35.7	0	0	---	0.00	29.982 
21:55	50.1	50.1	50.1	58	35.9	0	0	---	0.00	29.982 
22:00	49.8	49.8	49.8	58	35.6	0	0	---	0.00	29.985 
22:05	49.5	49.5	49.5	60	36.2	0	0	---	0.00	29.985 
22:10	49.2	49.2	49.2	61	36.3	0	0	---	0.00	29.985 
22:15	48.9	48.9	48.9	61	36.0	0	0	---	0.00	29.987 
22:20	48.8	48.8	48.8	62	36.4	0	0	---	0.00	29.987 
22:25	48.5	48.5	48.5	62	36.1	0	0	---	0.00	29.987 
22:30	48.2	48.2	48.2	62	35.8	0	0	---	0.00	29.991 
22:35	47.9	47.9	47.9	63	35.9	0	0	---	0.00	29.991 
22:40	47.7	47.7	47.7	64	36.1	0	0	---	0.00	29.991 
22:45	47.4	47.4	47.4	65	36.2	0	0	---	0.00	29.998 
22:50	47.1	47.1	47.1	66	36.3	0	0	---	0.00	29.998 
22:55	47.0	47.0	47.0	67	36.6	0	0	---	0.00	29.998 
23:00	47.0	47.0	47.0	67	36.6	0	0	---	0.00	29.999 
23:05	47.1	47.1	47.1	67	36.7	0	0	---	0.00	29.999 
23:10	47.3	47.3	47.3	66	36.5	0	0	---	0.00	29.999 
23:15	47.3	47.3	47.3	66	36.5	0	0	---	0.00	30.000 
23:20	47.3	47.3	47.3	67	36.9	0	0	---	0.00	30.000 
23:25	47.6	47.6	47.6	65	36.4	0	0	---	0.00	30.000 
23:30	47.6	47.6	47.6	66	36.8	0	0	---	0.00	30.004 
23:35	47.4	47.4	47.4	66	36.6	0	0	---	0.00	30.004 
23:40	47.1	47.1	47.1	66	36.3	0	0	---	0.00	30.004 
23:45	46.8	46.8	46.8	67	36.4	0	0	---	0.00	30.011 
23:50	46.5	46.5	46.5	69	36.9	0	0	---	0.00	30.011 
23:55	46.2	46.2	46.2	70	37.0	0	0	---	0.00	30.011 

CoCoRaHS
IN-AL-39
A2 Web Hosting
Creative Commons License
GoDaddy
search engine by freefind advanced

loaded 2018-11-20 06:53:26 • last modified 2010-11-18 10:43:29
Privacy PolicyDisclaimer
• wx.awcolley.com is powered by PmWiki v.2002016 •
• all content (unless otherwise noted) © 2018 A W Colley